createdAt,value
2018-08-22T00:01:28.387Z,73.10
2018-08-22T00:03:56.493Z,73.20
2018-08-22T00:06:24.546Z,73.40
2018-08-22T00:08:52.742Z,73.40
2018-08-22T00:11:20.757Z,73.70
2018-08-22T00:13:48.808Z,73.70
2018-08-22T00:16:16.853Z,74.00
2018-08-22T00:18:44.904Z,74.00
2018-08-22T00:21:12.961Z,74.30
2018-08-22T00:23:41.017Z,74.20
2018-08-22T00:26:09.156Z,74.40
2018-08-22T00:28:37.209Z,74.40
2018-08-22T00:31:05.277Z,74.20
2018-08-22T00:33:33.329Z,74.40
2018-08-22T00:36:01.414Z,74.80
2018-08-22T00:38:29.461Z,74.80
2018-08-22T00:40:57.513Z,74.90
2018-08-22T00:43:25.565Z,75.20
2018-08-22T00:45:53.693Z,75.30
2018-08-22T00:48:21.769Z,75.40
2018-08-22T00:50:49.818Z,75.30
2018-08-22T00:53:17.933Z,75.40
2018-08-22T00:55:46.092Z,75.10
2018-08-22T00:58:14.169Z,75.20
2018-08-22T01:00:42.257Z,75.00
2018-08-22T01:03:10.337Z,75.20
2018-08-22T01:05:38.853Z,75.30
2018-08-22T01:08:06.920Z,75.20
2018-08-22T01:10:34.997Z,75.20
2018-08-22T01:13:03.067Z,75.40
2018-08-22T01:15:31.121Z,75.20
2018-08-22T01:17:59.192Z,75.30
2018-08-22T01:20:27.657Z,75.40
2018-08-22T01:22:55.723Z,75.40
2018-08-22T01:25:23.785Z,75.30
2018-08-22T01:27:51.857Z,75.30
2018-08-22T01:30:19.918Z,75.40
2018-08-22T01:32:48.017Z,75.30
2018-08-22T01:35:16.069Z,75.30
2018-08-22T01:37:44.133Z,75.40
2018-08-22T01:40:12.202Z,75.50
2018-08-22T01:42:40.262Z,75.70
2018-08-22T01:45:08.357Z,75.90
2018-08-22T01:47:36.440Z,75.80
2018-08-22T01:50:04.512Z,75.80
2018-08-22T01:52:32.573Z,76.10
2018-08-22T01:55:00.644Z,76.20
2018-08-22T01:57:28.706Z,76.20
2018-08-22T01:59:56.769Z,76.60
2018-08-22T02:02:24.829Z,76.60
2018-08-22T02:04:52.900Z,76.90
2018-08-22T02:07:20.961Z,76.60
2018-08-22T02:09:49.022Z,76.90
2018-08-22T02:12:17.108Z,76.60
2018-08-22T02:14:45.169Z,76.70
2018-08-22T02:17:13.232Z,76.60
2018-08-22T02:19:41.309Z,76.90
2018-08-22T02:22:09.366Z,76.90
2018-08-22T02:24:37.525Z,77.20
2018-08-22T02:27:05.718Z,77.10
2018-08-22T02:29:33.799Z,77.20
2018-08-22T02:32:02.024Z,77.30
2018-08-22T02:34:30.169Z,77.30
2018-08-22T02:36:58.229Z,77.20
2018-08-22T02:39:26.306Z,77.40
2018-08-22T02:41:54.364Z,77.10
2018-08-22T02:44:22.429Z,77.30
2018-08-22T02:46:50.557Z,77.10
2018-08-22T02:49:18.626Z,77.10
2018-08-22T02:51:46.689Z,77.20
2018-08-22T02:54:14.759Z,77.40
2018-08-22T02:56:42.844Z,77.30
2018-08-22T02:59:10.901Z,77.10
2018-08-22T03:01:38.958Z,77.20
2018-08-22T03:04:07.018Z,77.50
2018-08-22T03:06:35.074Z,77.50
2018-08-22T03:09:03.329Z,77.50
2018-08-22T03:11:31.397Z,77.80
2018-08-22T03:13:59.449Z,78.00
2018-08-22T03:16:27.502Z,78.30
2018-08-22T03:18:55.562Z,78.80
2018-08-22T03:21:23.613Z,78.50
2018-08-22T03:23:51.675Z,78.40
2018-08-22T03:26:19.721Z,78.60
2018-08-22T03:28:47.777Z,78.70
2018-08-22T03:31:15.846Z,79.00
2018-08-22T03:33:43.898Z,78.80
2018-08-22T03:36:11.962Z,79.10
2018-08-22T03:38:40.021Z,79.10
2018-08-22T03:41:08.086Z,78.80
2018-08-22T03:43:36.166Z,78.70
2018-08-22T03:46:04.230Z,78.80
2018-08-22T03:48:32.437Z,78.60
2018-08-22T03:51:00.515Z,78.70
2018-08-22T03:53:28.596Z,78.50
2018-08-22T03:55:56.651Z,78.40
2018-08-22T03:58:24.706Z,78.10
2018-08-22T04:00:52.773Z,78.20
2018-08-22T04:03:20.822Z,78.30
2018-08-22T04:05:48.881Z,78.50
2018-08-22T04:08:16.942Z,78.50
2018-08-22T04:10:45.026Z,79.00
2018-08-22T04:13:13.222Z,78.80
2018-08-22T04:15:41.282Z,78.90
2018-08-22T04:18:09.333Z,79.10
2018-08-22T04:20:37.645Z,79.10
2018-08-22T04:23:05.702Z,79.20
2018-08-22T04:25:33.759Z,79.10
2018-08-22T04:28:02.618Z,79.20
2018-08-22T04:30:30.682Z,79.10
2018-08-22T04:32:58.734Z,79.40
2018-08-22T04:35:26.797Z,79.10
2018-08-22T04:37:54.849Z,79.40
2018-08-22T04:40:22.909Z,79.50
2018-08-22T04:42:51.009Z,79.60
2018-08-22T04:45:19.065Z,79.80
2018-08-22T04:47:47.122Z,79.70
2018-08-22T04:50:15.389Z,79.70
2018-08-22T04:52:43.462Z,79.70
2018-08-22T04:55:11.561Z,79.90
2018-08-22T04:57:39.621Z,79.80
2018-08-22T05:00:08.422Z,79.80
2018-08-22T05:02:36.889Z,79.90
2018-08-22T05:05:04.993Z,80.00
2018-08-22T05:07:33.043Z,80.10
2018-08-22T05:10:01.105Z,79.90
2018-08-22T05:12:29.585Z,80.00
2018-08-22T05:14:57.653Z,80.40
2018-08-22T05:17:25.697Z,80.10
2018-08-22T05:19:53.757Z,80.60
2018-08-22T05:22:21.872Z,80.20
2018-08-22T05:24:49.982Z,80.60
2018-08-22T05:27:17.993Z,80.30
2018-08-22T05:29:46.046Z,80.00
2018-08-22T05:32:14.110Z,79.90
2018-08-22T05:34:42.157Z,79.90
2018-08-22T05:37:10.214Z,80.70
2018-08-22T05:39:38.270Z,80.10
2018-08-22T05:42:06.362Z,80.00
2018-08-22T05:44:34.417Z,79.70
2018-08-22T05:47:02.482Z,80.40
2018-08-22T05:49:30.550Z,79.90
2018-08-22T05:51:58.601Z,80.80
2018-08-22T05:54:26.664Z,80.70
2018-08-22T05:56:54.739Z,79.50
2018-08-22T05:59:22.798Z,79.00
2018-08-22T06:01:50.869Z,79.20
2018-08-22T06:04:18.929Z,79.00
2018-08-22T06:06:47.001Z,78.00
2018-08-22T06:09:15.082Z,77.80
2018-08-22T06:11:44.045Z,77.30
2018-08-22T06:14:12.542Z,76.70
2018-08-22T06:16:40.613Z,76.60
2018-08-22T06:19:08.682Z,75.20
2018-08-22T06:21:36.754Z,75.00
2018-08-22T06:24:04.829Z,74.20
2018-08-22T06:26:32.900Z,74.00
2018-08-22T06:29:00.965Z,72.80
2018-08-22T06:31:29.042Z,72.80
2018-08-22T06:33:57.115Z,71.90
2018-08-22T06:36:25.230Z,71.30
2018-08-22T06:38:53.262Z,71.00
2018-08-22T06:41:21.384Z,70.30
2018-08-22T06:43:49.393Z,70.00
2018-08-22T06:46:17.477Z,69.60
2018-08-22T06:48:45.542Z,68.70
2018-08-22T06:51:13.610Z,69.40
2018-08-22T06:53:41.698Z,69.00
2018-08-22T06:56:09.765Z,69.00
2018-08-22T06:58:37.849Z,68.70
2018-08-22T07:01:06.101Z,68.80
2018-08-22T07:03:34.381Z,68.70
2018-08-22T07:06:02.693Z,69.20
2018-08-22T07:08:30.765Z,67.90
2018-08-22T07:10:58.830Z,67.30
2018-08-22T07:13:26.893Z,67.00
2018-08-22T07:15:55.028Z,66.50
2018-08-22T07:18:23.099Z,66.30
2018-08-22T07:20:51.255Z,66.20
2018-08-22T07:23:19.313Z,65.90
2018-08-22T07:25:47.389Z,66.20
2018-08-22T07:28:15.473Z,66.30
2018-08-22T07:30:43.534Z,66.80
2018-08-22T07:33:11.622Z,66.30
2018-08-22T07:35:39.873Z,66.30
2018-08-22T07:38:08.065Z,66.30
2018-08-22T07:40:36.559Z,65.80
2018-08-22T07:43:04.632Z,65.30
2018-08-22T07:45:32.701Z,65.00
2018-08-22T07:48:00.789Z,64.40
2018-08-22T07:50:28.866Z,63.80
2018-08-22T07:53:04.030Z,63.60
2018-08-22T07:55:35.738Z,64.60
2018-08-22T07:58:04.001Z,64.60
2018-08-22T08:00:32.109Z,64.70
2018-08-22T08:03:00.507Z,64.20
2018-08-22T08:05:28.639Z,64.40
2018-08-22T08:07:56.683Z,64.50
2018-08-22T08:10:30.290Z,64.50
2018-08-22T08:12:58.365Z,64.60
2018-08-22T08:15:26.429Z,64.30
2018-08-22T08:17:54.626Z,63.50
2018-08-22T08:20:23.031Z,63.10
2018-08-22T08:22:51.114Z,62.70
2018-08-22T08:25:19.421Z,63.00
2018-08-22T08:27:47.489Z,61.90
2018-08-22T08:30:15.586Z,62.80
2018-08-22T08:32:43.925Z,62.70
2018-08-22T08:35:11.988Z,62.10
2018-08-22T08:37:40.071Z,61.40
2018-08-22T08:40:08.197Z,60.90
2018-08-22T08:42:36.312Z,60.80
2018-08-22T08:45:07.034Z,61.20
2018-08-22T08:47:35.146Z,61.40
2018-08-22T08:50:03.210Z,61.80
2018-08-22T08:52:31.319Z,61.80
2018-08-22T08:54:59.350Z,61.60
2018-08-22T08:57:27.485Z,61.60
2018-08-22T08:59:55.482Z,61.00
2018-08-22T09:02:23.546Z,60.20
2018-08-22T09:04:51.605Z,59.30
2018-08-22T09:07:19.662Z,59.00
2018-08-22T09:09:47.838Z,58.80
2018-08-22T09:12:15.918Z,59.20
2018-08-22T09:14:43.969Z,59.00
2018-08-22T09:17:12.069Z,59.20
2018-08-22T09:19:40.141Z,58.50
2018-08-22T09:22:08.182Z,58.20
2018-08-22T09:24:36.243Z,58.60
2018-08-22T09:27:04.298Z,59.60
2018-08-22T09:29:32.395Z,59.60
2018-08-22T09:32:00.429Z,59.30
2018-08-22T09:34:28.489Z,59.20
2018-08-22T09:36:56.533Z,59.30
2018-08-22T09:39:24.665Z,59.00
2018-08-22T09:41:52.658Z,59.40
2018-08-22T09:44:20.717Z,59.60
2018-08-22T09:46:48.882Z,59.00
2018-08-22T09:49:16.826Z,59.00
2018-08-22T09:51:44.892Z,58.20
2018-08-22T09:54:12.949Z,58.00
2018-08-22T09:56:41.006Z,57.00
2018-08-22T09:59:09.074Z,57.00
2018-08-22T10:01:44.145Z,58.00
2018-08-22T10:04:12.212Z,57.60
2018-08-22T10:06:43.647Z,58.70
2018-08-22T10:09:18.882Z,58.80
2018-08-22T10:11:47.076Z,58.40
2018-08-22T10:14:15.203Z,58.30
2018-08-22T10:16:43.274Z,58.00
2018-08-22T10:19:11.362Z,58.20
2018-08-22T10:21:39.421Z,57.70
2018-08-22T10:24:07.527Z,57.10
2018-08-22T10:26:35.629Z,56.50
2018-08-22T10:29:03.637Z,56.40
2018-08-22T10:31:31.690Z,57.20
2018-08-22T10:33:59.757Z,57.30
2018-08-22T10:36:27.805Z,57.30
2018-08-22T10:38:55.884Z,57.80
2018-08-22T10:41:23.938Z,57.30
2018-08-22T10:43:51.998Z,57.70
2018-08-22T10:46:20.054Z,57.50
2018-08-22T10:48:48.113Z,57.20
2018-08-22T10:51:16.201Z,56.30
2018-08-22T10:53:44.285Z,56.70
2018-08-22T10:56:12.363Z,56.70
2018-08-22T10:58:40.529Z,56.80
2018-08-22T11:01:08.598Z,56.30
2018-08-22T11:03:36.685Z,56.20
2018-08-22T11:06:04.862Z,57.00
2018-08-22T11:08:32.933Z,56.10
2018-08-22T11:11:01.002Z,56.50
2018-08-22T11:13:29.086Z,55.70
2018-08-22T11:15:57.197Z,55.70
2018-08-22T11:18:25.250Z,55.10
2018-08-22T11:20:53.193Z,55.30
2018-08-22T11:23:33.541Z,55.30
2018-08-22T11:26:13.885Z,55.20
2018-08-22T11:28:53.477Z,56.10
2018-08-22T11:31:32.961Z,55.10
2018-08-22T11:34:12.560Z,54.90
2018-08-22T11:36:40.961Z,54.90
2018-08-22T11:39:09.165Z,57.00
2018-08-22T11:41:37.221Z,55.20
2018-08-22T11:44:05.286Z,54.80
2018-08-22T11:46:33.350Z,55.50
2018-08-22T11:49:01.435Z,56.00
2018-08-22T11:51:29.522Z,55.60
2018-08-22T11:53:57.602Z,54.60
2018-08-22T11:56:25.709Z,54.70
2018-08-22T11:58:53.781Z,54.80
2018-08-22T12:01:21.857Z,54.10
2018-08-22T12:03:50.333Z,54.00
2018-08-22T12:06:18.415Z,54.60
2018-08-22T12:08:46.472Z,54.60
2018-08-22T12:11:14.555Z,54.40
2018-08-22T12:13:42.622Z,55.10
2018-08-22T12:16:10.756Z,54.50
2018-08-22T12:18:38.797Z,53.90
2018-08-22T12:21:06.916Z,54.70
2018-08-22T12:23:34.957Z,54.60
2018-08-22T12:26:03.025Z,54.40
2018-08-22T12:28:31.090Z,54.30
2018-08-22T12:30:59.180Z,55.40
2018-08-22T12:33:27.234Z,55.00
2018-08-22T12:35:55.322Z,55.60
2018-08-22T12:38:23.706Z,54.60
2018-08-22T12:40:51.781Z,54.80
2018-08-22T12:43:19.844Z,55.00
2018-08-22T12:45:47.913Z,54.60
2018-08-22T12:48:16.089Z,55.10
2018-08-22T12:50:44.138Z,54.80
2018-08-22T12:53:12.214Z,54.80
2018-08-22T12:55:40.435Z,54.50
2018-08-22T12:58:08.477Z,54.60
2018-08-22T13:00:36.549Z,54.30
2018-08-22T13:03:04.630Z,54.90
2018-08-22T13:05:32.709Z,54.70
2018-08-22T13:08:00.790Z,54.90
2018-08-22T13:10:28.862Z,55.00
2018-08-22T13:12:56.922Z,55.10
2018-08-22T13:15:24.993Z,54.50
2018-08-22T13:17:53.066Z,55.20
2018-08-22T13:20:21.147Z,55.40
2018-08-22T13:22:49.205Z,55.20
2018-08-22T13:25:17.310Z,55.00
2018-08-22T13:27:45.381Z,55.50
2018-08-22T13:30:13.670Z,55.70
2018-08-22T13:32:41.729Z,56.20
2018-08-22T13:35:09.813Z,56.10
2018-08-22T13:37:37.889Z,56.40
2018-08-22T13:40:05.982Z,55.70
2018-08-22T13:42:34.070Z,56.00
2018-08-22T13:45:02.155Z,56.00
2018-08-22T13:47:30.321Z,56.00
2018-08-22T13:49:58.369Z,56.20
2018-08-22T13:52:26.516Z,56.40
2018-08-22T13:54:54.754Z,56.10
2018-08-22T13:57:22.817Z,56.20
2018-08-22T13:59:50.873Z,56.00
2018-08-22T14:02:18.941Z,55.40
2018-08-22T14:04:47.009Z,55.80
2018-08-22T14:07:15.159Z,55.50
2018-08-22T14:09:43.214Z,55.90
2018-08-22T14:12:11.285Z,56.10
2018-08-22T14:14:39.345Z,56.00
2018-08-22T14:17:07.618Z,56.30
2018-08-22T14:19:35.686Z,56.40
2018-08-22T14:22:03.754Z,56.70
2018-08-22T14:24:31.818Z,56.80
2018-08-22T14:26:59.873Z,56.80
2018-08-22T14:29:27.941Z,57.00
2018-08-22T14:31:56.031Z,56.80
2018-08-22T14:34:24.069Z,56.80
2018-08-22T14:36:52.445Z,56.60
2018-08-22T14:39:20.532Z,57.10
2018-08-22T14:41:48.558Z,57.00
2018-08-22T14:44:16.652Z,57.10
2018-08-22T14:46:44.717Z,56.60
2018-08-22T14:49:12.782Z,56.40
2018-08-22T14:51:40.959Z,56.50
2018-08-22T14:54:09.033Z,56.30
2018-08-22T14:56:37.229Z,56.40
2018-08-22T14:59:05.618Z,56.40
2018-08-22T15:01:33.712Z,56.30
2018-08-22T15:04:01.778Z,55.90
2018-08-22T15:06:29.854Z,56.40
2018-08-22T15:09:03.078Z,56.20
2018-08-22T15:11:31.159Z,56.30
2018-08-22T15:13:59.221Z,56.20
2018-08-22T15:16:27.302Z,57.10
2018-08-22T15:18:55.465Z,56.40
2018-08-22T15:21:23.553Z,56.70
2018-08-22T15:23:52.285Z,56.40
2018-08-22T15:26:20.362Z,56.70
2018-08-22T15:28:48.427Z,56.40
2018-08-22T15:31:16.510Z,56.60
2018-08-22T15:33:45.083Z,56.50
2018-08-22T15:36:13.149Z,56.80
2018-08-22T15:38:41.245Z,57.10
2018-08-22T15:41:09.338Z,56.70
2018-08-22T15:43:37.395Z,56.70
2018-08-22T15:46:05.477Z,57.00
2018-08-22T15:48:33.549Z,56.90
2018-08-22T15:51:01.829Z,57.50
2018-08-22T15:53:30.261Z,57.60
2018-08-22T15:55:58.341Z,57.10
2018-08-22T15:58:26.419Z,57.80
2018-08-22T16:00:54.873Z,57.20
2018-08-22T16:03:24.110Z,57.50
2018-08-22T16:05:52.810Z,57.50
2018-08-22T16:08:22.535Z,57.30
2018-08-22T16:10:50.598Z,57.80
2018-08-22T16:13:24.070Z,57.70
2018-08-22T16:15:53.404Z,57.40
2018-08-22T16:18:21.709Z,57.20
2018-08-22T16:20:57.787Z,57.60
2018-08-22T16:23:27.116Z,57.70
2018-08-22T16:25:55.934Z,57.80
2018-08-22T16:28:24.714Z,57.90
2018-08-22T16:30:57.111Z,57.70
2018-08-22T16:33:22.241Z,58.00
2018-08-22T16:35:50.315Z,58.00
2018-08-22T16:38:18.438Z,57.90
2018-08-22T16:40:49.319Z,57.80
2018-08-22T16:43:34.482Z,58.10
2018-08-22T16:46:04.663Z,58.60
2018-08-22T16:48:32.739Z,58.50
2018-08-22T16:51:00.798Z,58.80
2018-08-22T16:53:28.882Z,59.20
2018-08-22T16:55:56.955Z,59.30
2018-08-22T16:58:25.544Z,59.20
2018-08-22T17:00:53.597Z,59.40
2018-08-22T17:03:21.749Z,59.40
2018-08-22T17:05:49.822Z,59.60
2018-08-22T17:08:17.945Z,59.70
2018-08-22T17:10:56.281Z,59.40
2018-08-22T17:13:31.496Z,59.80
2018-08-22T17:16:00.881Z,60.10
2018-08-22T17:18:29.063Z,60.40
2018-08-22T17:20:57.129Z,60.50
2018-08-22T17:23:25.202Z,60.40
2018-08-22T17:25:53.284Z,60.40
2018-08-22T17:28:24.956Z,60.70
2018-08-22T17:30:53.046Z,60.80
2018-08-22T17:33:24.389Z,60.70
2018-08-22T17:35:57.046Z,60.70
2018-08-22T17:38:25.594Z,60.90
2018-08-22T17:40:53.660Z,61.50
2018-08-22T17:43:21.757Z,61.50
2018-08-22T17:45:49.826Z,61.50
2018-08-22T17:48:17.906Z,61.60
2018-08-22T17:50:45.973Z,61.80
2018-08-22T17:53:14.063Z,62.10
2018-08-22T17:55:42.122Z,62.20
2018-08-22T17:58:10.194Z,62.50
2018-08-22T18:00:38.830Z,62.60
2018-08-22T18:03:06.913Z,62.90
2018-08-22T18:05:36.039Z,63.00
2018-08-22T18:08:06.013Z,63.30
2018-08-22T18:10:36.232Z,63.40
2018-08-22T18:13:08.541Z,63.40
2018-08-22T18:15:36.614Z,63.70
2018-08-22T18:18:05.374Z,63.60
2018-08-22T18:20:37.660Z,63.90
2018-08-22T18:23:05.757Z,64.10
2018-08-22T18:25:35.002Z,64.40
2018-08-22T18:28:06.225Z,64.40
2018-08-22T18:30:35.177Z,64.50
2018-08-22T18:33:03.961Z,64.90
2018-08-22T18:35:31.997Z,65.10
2018-08-22T18:38:00.069Z,65.30
2018-08-22T18:40:29.638Z,65.30
2018-08-22T18:42:59.526Z,65.60
2018-08-22T18:45:27.966Z,65.70
2018-08-22T18:47:56.060Z,66.30
2018-08-22T18:50:24.427Z,66.20
2018-08-22T18:52:54.473Z,66.40
2018-08-22T18:55:24.713Z,66.40
2018-08-22T18:57:54.069Z,66.70
2018-08-22T19:00:22.184Z,66.70
2018-08-22T19:02:53.618Z,67.40
2018-08-22T19:05:24.470Z,67.80
2018-08-22T19:08:09.693Z,68.40
2018-08-22T19:10:39.938Z,68.60
2018-08-22T19:13:13.497Z,68.90
2018-08-22T19:15:41.574Z,69.10
2018-08-22T19:18:10.277Z,69.20
2018-08-22T19:20:38.671Z,69.50
2018-08-22T19:23:06.847Z,69.70
2018-08-22T19:25:34.962Z,70.00
2018-08-22T19:28:03.374Z,70.20
2018-08-22T19:30:33.940Z,70.10
2018-08-22T19:33:02.962Z,70.10
2018-08-22T19:35:31.005Z,69.80
2018-08-22T19:38:04.885Z,70.00
2018-08-22T19:40:32.952Z,70.40
2018-08-22T19:43:01.275Z,70.70
2018-08-22T19:45:29.366Z,70.80
2018-08-22T19:47:57.438Z,70.80
2018-08-22T19:50:25.510Z,70.80
2018-08-22T19:52:53.791Z,71.20
2018-08-22T19:55:22.553Z,71.10
2018-08-22T19:57:50.840Z,71.10
2018-08-22T20:00:19.039Z,71.10
2018-08-22T20:02:46.970Z,71.30
2018-08-22T20:05:15.094Z,71.40
2018-08-22T20:07:43.174Z,71.40
2018-08-22T20:10:11.812Z,71.60
2018-08-22T20:12:47.136Z,71.20
2018-08-22T20:15:15.241Z,71.20
2018-08-22T20:17:46.049Z,71.50
2018-08-22T20:20:14.129Z,71.80
2018-08-22T20:22:43.455Z,71.90
2018-08-22T20:25:11.945Z,72.50
2018-08-22T20:27:40.245Z,72.70
2018-08-22T20:30:24.368Z,73.00
2018-08-22T20:32:59.101Z,72.50
2018-08-22T20:35:31.223Z,73.00
2018-08-22T20:38:07.134Z,73.20
2018-08-22T20:40:35.212Z,73.40
2018-08-22T20:43:03.313Z,73.50
2018-08-22T20:45:38.341Z,73.90
2018-08-22T20:48:08.453Z,74.10
2018-08-22T20:50:37.826Z,74.70
2018-08-22T20:53:07.626Z,74.80
2018-08-22T20:55:35.722Z,74.70
2018-08-22T20:58:04.213Z,74.50
2018-08-22T21:00:33.804Z,74.50
2018-08-22T21:03:01.958Z,75.00
2018-08-22T21:05:29.970Z,75.50
2018-08-22T21:07:58.033Z,75.60
2018-08-22T21:10:26.109Z,75.70
2018-08-22T21:12:54.218Z,75.90
2018-08-22T21:15:22.288Z,76.10
2018-08-22T21:17:50.365Z,76.00
2018-08-22T21:20:24.495Z,75.80
2018-08-22T21:22:53.398Z,76.50
2018-08-22T21:25:21.465Z,76.50
2018-08-22T21:27:50.068Z,76.50
2018-08-22T21:30:18.356Z,76.80
2018-08-22T21:32:47.421Z,77.10
2018-08-22T21:35:21.030Z,76.60
2018-08-22T21:37:49.101Z,77.00
2018-08-22T21:40:17.179Z,77.10
2018-08-22T21:42:45.250Z,77.10
2018-08-22T21:45:13.353Z,77.10
2018-08-22T21:47:41.418Z,77.60
2018-08-22T21:50:09.505Z,77.60
2018-08-22T21:53:01.193Z,77.60
2018-08-22T21:55:34.765Z,77.50
2018-08-22T21:58:03.122Z,77.60
2018-08-22T22:00:31.181Z,77.80
2018-08-22T22:02:59.242Z,77.90
2018-08-22T22:05:38.765Z,78.10
2018-08-22T22:08:07.385Z,78.20
2018-08-22T22:10:35.450Z,78.30
2018-08-22T22:13:03.510Z,78.30
2018-08-22T22:15:36.959Z,78.40
2018-08-22T22:18:05.478Z,78.50
2018-08-22T22:20:33.546Z,79.00
2018-08-22T22:23:01.601Z,79.10
2018-08-22T22:25:29.667Z,79.20
2018-08-22T22:27:57.722Z,79.10
2018-08-22T22:30:25.792Z,79.30
2018-08-22T22:32:53.846Z,79.40
2018-08-22T22:35:26.149Z,79.70
2018-08-22T22:37:58.797Z,79.80
2018-08-22T22:40:28.846Z,79.90
2018-08-22T22:42:57.074Z,80.00
2018-08-22T22:45:25.133Z,80.30
2018-08-22T22:47:53.197Z,80.40
2018-08-22T22:50:21.957Z,80.50
2018-08-22T22:52:50.057Z,80.50
2018-08-22T22:55:18.125Z,80.70
2018-08-22T22:57:46.181Z,80.80
2018-08-22T23:00:15.692Z,80.80
2018-08-22T23:02:44.393Z,81.10
2018-08-22T23:05:12.474Z,81.40
2018-08-22T23:07:41.502Z,81.50
2018-08-22T23:10:10.925Z,81.50
2018-08-22T23:12:41.839Z,81.60
2018-08-22T23:15:13.806Z,81.70
2018-08-22T23:17:42.290Z,81.90
2018-08-22T23:20:24.058Z,82.00
2018-08-22T23:22:52.157Z,82.10
2018-08-22T23:25:20.278Z,82.30
2018-08-22T23:27:48.361Z,82.40
2018-08-22T23:30:17.621Z,82.40
2018-08-22T23:32:45.749Z,82.70
2018-08-22T23:35:35.835Z,82.60
2018-08-22T23:38:05.061Z,82.50
2018-08-22T23:40:34.281Z,82.60
2018-08-22T23:43:02.350Z,82.80
2018-08-22T23:45:30.418Z,82.20
2018-08-22T23:47:58.556Z,82.80
2018-08-22T23:50:36.747Z,83.00
2018-08-22T23:53:04.834Z,83.40
2018-08-22T23:55:32.902Z,83.60
2018-08-22T23:58:00.979Z,83.80
